Airfield :
LOGIN :

Register | Disclaimer

   EN    FR    IT 

 










Legend :    VFR   Marginal VFR   IFR   Intensive IFR   Very Intensive IFR
Visi :
Ceiling :
>= 8 km
>= 3000ft
5 to 8 km
1000 to 3000 ft
1500m to 5 km
500 to 1000 ft
800 to 1500m
200 to 500 ft
< 800m
< 200 ft
Symbols :   Thunderstorms  Fog  Heavy snow  Heavy precipitations  Wind > 20 kt
SIGMETs :     Misc.  Thunderstorms  Icing  Turbulence  Mountain Waves  Volcanic Ashes







- Airport Elevation : 50 ft
- IATA code : KOI
- Download approach charts


EGPA - Kirkwall

CURRENT METAR :
  • 192220Z AUTO 13013KT 9999 OVC032/// 07/02 Q1033

EXPIRED METARs :
  • 192150Z AUTO 12013KT 9999 OVC031/// 07/02 Q1033
  • 192120Z AUTO 12012KT 9999 OVC031/// 08/02 Q1033
  • 192050Z AUTO 13015KT 090V160 9999 OVC032/// 07/02 Q1033
  • 192020Z 13013KT 9999 BKN030 07/02 Q1033
  • 191950Z 13013KT 9999 FEW025 BKN030 07/02 Q1033

TAF TAF EGPA
Valid from the 19 at 21:00 until the 20 at 06:00 UTC


192002Z 1921/2006 13012KT 9999 BKN030
PROB40
TEMPO 1921/1924 12015G25KT
No reported NOTAMs for that airfield.



MET'MAP, your aeronautical weather chart ! - Copyright ORBIFLY December 2007 - Disclaimer

ORBIFLY MET'MAP TEAM :

Programming & Development : Alexandra Zaïnal
Concept & Development : Baudouin d'Aumeries
Co-Development & Prog : Marc-Olivier Méhu
Technical & hardware support : Manuel Goepfert

Contact : metmap@orbifly.com




SOURCES & CREDITS :

   NOAA